Time;durP1;ratioP1;P1;durP2;ratioP2;P2;SDS_P1;SDS_P2;PMS_P1;PMS_P2;Temp;Humidity;BMP_temperature;BMP_pressure;BME280_temperature;BME280_humidity;BME280_pressure;Samples;Min_cycle;Max_cycle;Signal;HPM_P1;HPM_P2
2022/03/23 00:01:17;;;;;;;39.43;17.20;;;;;;;21.34;29.71;103117.56;5013208;28;20036;-72
2022/03/23 00:03:42;;;;;;;35.17;15.33;;;;;;;21.41;29.32;103111.19;5029607;28;20038;-72
2022/03/23 00:06:08;;;;;;;39.10;15.80;;;;;;;21.62;29.54;103120.56;5030054;28;20026;-71
2022/03/23 00:08:33;;;;;;;39.67;16.10;;;;;;;21.52;28.67;103111.88;5029848;28;20025;-72
2022/03/23 00:10:59;;;;;;;36.47;15.17;;;;;;;21.67;28.95;103108.03;5029312;28;20473;-71
2022/03/23 00:13:25;;;;;;;40.30;14.93;;;;;;;21.59;29.23;103111.78;5030133;28;20037;-72
2022/03/23 00:15:50;;;;;;;35.23;15.33;;;;;;;21.63;29.07;103102.81;5063005;28;20026;-71
2022/03/23 00:18:15;;;;;;;36.30;15.53;;;;;;;21.15;29.49;103107.25;5030227;28;20080;-71
2022/03/23 00:20:42;;;;;;;33.93;16.27;;;;;;;21.17;29.93;103100.13;5031733;28;20061;-72
2022/03/23 00:23:09;;;;;;;36.87;15.27;;;;;;;21.24;29.38;103110.66;5034463;28;20079;-73
2022/03/23 00:25:36;;;;;;;36.00;14.93;;;;;;;21.33;28.82;103105.16;5066049;28;20029;-71
2022/03/23 00:28:01;;;;;;;32.73;15.17;;;;;;;21.28;29.35;103107.91;5033230;28;20026;-72
2022/03/23 00:30:27;;;;;;;35.30;14.23;;;;;;;20.94;29.55;103102.34;5066609;28;20084;-72
2022/03/23 00:32:52;;;;;;;33.80;14.23;;;;;;;20.75;29.01;103102.66;5034450;28;20042;-72
2022/03/23 00:35:17;;;;;;;33.30;15.07;;;;;;;21.11;29.59;103110.00;5066480;28;20079;-71
2022/03/23 00:37:43;;;;;;;33.47;14.80;;;;;;;21.26;29.06;103101.75;5033519;28;20021;-72
2022/03/23 00:40:09;;;;;;;36.97;14.90;;;;;;;21.25;28.93;103099.09;5032140;28;20036;-72
2022/03/23 00:42:35;;;;;;;31.90;14.97;;;;;;;21.14;29.05;103100.22;5033488;28;20091;-72
2022/03/23 00:45:03;;;;;;;36.33;15.67;;;;;;;21.11;29.62;103102.91;5032862;28;20466;-71
2022/03/23 00:47:29;;;;;;;35.57;14.00;;;;;;;21.10;29.53;103109.16;5065635;28;20025;-72
2022/03/23 00:49:54;;;;;;;32.10;14.70;;;;;;;21.23;29.47;103103.59;5034142;28;20388;-72
2022/03/23 00:52:20;;;;;;;33.67;14.63;;;;;;;20.80;29.88;103105.22;5032647;28;20029;-72
2022/03/23 00:54:45;;;;;;;36.67;14.83;;;;;;;20.60;29.90;103108.19;5032412;28;20025;-71
2022/03/23 00:57:11;;;;;;;33.90;14.17;;;;;;;20.53;30.70;103102.09;5032250;28;20332;-72
2022/03/23 00:59:36;;;;;;;34.70;14.67;;;;;;;20.55;30.58;103110.06;5032545;28;20033;-72
2022/03/23 01:02:02;;;;;;;32.47;15.73;;;;;;;20.48;30.20;103102.19;5033555;28;20033;-72
2022/03/23 01:04:28;;;;;;;36.53;14.73;;;;;;;20.48;30.24;103101.28;5065713;28;20422;-72
2022/03/23 01:06:54;;;;;;;35.47;15.17;;;;;;;20.35;30.56;103113.91;5033964;28;20036;-72
2022/03/23 01:09:23;;;;;;;36.10;15.53;;;;;;;20.63;30.23;103109.00;5033209;28;20022;-72
2022/03/23 01:11:50;;;;;;;40.03;15.47;;;;;;;20.67;30.03;103097.44;5065934;28;20036;-72
2022/03/23 01:14:16;;;;;;;32.97;15.03;;;;;;;20.43;30.76;103101.38;5032314;28;20013;-72
2022/03/23 01:16:42;;;;;;;31.17;14.63;;;;;;;20.38;30.90;103103.22;5033407;28;20025;-72
2022/03/23 01:19:08;;;;;;;33.20;15.57;;;;;;;20.46;30.63;103106.63;5033331;28;20040;-72
2022/03/23 01:21:33;;;;;;;34.03;15.47;;;;;;;20.08;31.49;103102.78;5032418;28;20045;-72
2022/03/23 01:23:59;;;;;;;33.53;15.50;;;;;;;20.64;30.85;103099.28;5031586;28;20021;-72
2022/03/23 01:26:24;;;;;;;37.83;15.67;;;;;;;20.66;30.88;103084.16;5048783;28;20130;-72
2022/03/23 01:28:50;;;;;;;36.77;16.03;;;;;;;20.93;30.15;103095.28;5033385;28;20025;-72
2022/03/23 01:31:15;;;;;;;33.50;14.93;;;;;;;20.16;31.35;103089.41;5031463;28;20060;-71
2022/03/23 01:33:40;;;;;;;32.87;14.40;;;;;;;20.40;31.07;103085.50;5032425;28;20436;-72
2022/03/23 01:36:06;;;;;;;31.83;13.93;;;;;;;20.60;30.80;103086.94;5064258;28;20112;-72
2022/03/23 01:38:31;;;;;;;37.87;15.57;;;;;;;20.63;30.45;103087.75;5065487;28;20029;-72
2022/03/23 01:40:57;;;;;;;33.00;15.13;;;;;;;20.44;30.91;103084.56;5064997;28;20029;-72
2022/03/23 01:43:22;;;;;;;33.63;14.27;;;;;;;20.59;30.66;103086.06;5031298;28;20148;-71
2022/03/23 01:45:48;;;;;;;36.60;16.27;;;;;;;20.08;31.65;103088.63;5031886;28;20086;-72
2022/03/23 01:48:13;;;;;;;37.70;15.83;;;;;;;20.33;31.41;103094.44;5064706;28;20389;-72
2022/03/23 01:50:40;;;;;;;29.87;14.13;;;;;;;19.97;32.37;103092.31;5032555;28;20029;-72
2022/03/23 01:53:06;;;;;;;35.63;15.23;;;;;;;19.85;32.05;103086.28;5064563;28;20436;-72
2022/03/23 01:55:31;;;;;;;29.37;13.33;;;;;;;20.38;31.03;103087.28;5031890;28;20022;-72
2022/03/23 01:57:56;;;;;;;34.47;15.13;;;;;;;19.78;32.00;103086.34;5064553;28;20483;-72
2022/03/23 02:00:22;;;;;;;34.40;14.10;;;;;;;19.57;32.38;103086.63;5032879;28;20037;-72
2022/03/23 02:02:47;;;;;;;29.43;13.00;;;;;;;19.82;32.08;103088.09;5031739;28;20491;-71
2022/03/23 02:05:14;;;;;;;27.83;12.57;;;;;;;19.68;32.27;103084.69;5030722;28;20025;-72
2022/03/23 02:07:39;;;;;;;24.20;11.00;;;;;;;19.79;31.99;103081.91;5031331;28;20033;-72
2022/03/23 02:10:06;;;;;;;26.53;11.67;;;;;;;19.83;31.89;103081.88;5031143;28;20116;-71
2022/03/23 02:12:32;;;;;;;28.00;12.53;;;;;;;19.55;32.71;103084.00;5031189;28;20048;-72
2022/03/23 02:14:58;;;;;;;28.90;12.50;;;;;;;19.76;32.43;103077.53;5031581;28;20477;-72
2022/03/23 02:17:25;;;;;;;23.90;11.03;;;;;;;19.95;31.45;103082.63;5030997;28;20052;-72
2022/03/23 02:19:51;;;;;;;26.00;11.63;;;;;;;19.13;33.08;103081.78;5064303;28;20036;-72
2022/03/23 02:22:16;;;;;;;29.83;12.93;;;;;;;19.60;31.86;103081.28;5031134;28;20041;-72
2022/03/23 02:24:46;;;;;;;28.13;12.70;;;;;;;19.28;32.39;103074.59;5031434;28;20120;-72
2022/03/23 02:27:12;;;;;;;31.83;13.83;;;;;;;19.05;33.10;103075.69;5030025;28;20922;-72
2022/03/23 02:29:38;;;;;;;32.50;13.30;;;;;;;19.22;32.49;103079.94;5032545;28;20040;-72
2022/03/23 02:32:05;;;;;;;33.27;13.27;;;;;;;19.50;32.32;103073.41;5030584;28;20026;-72
2022/03/23 02:34:30;;;;;;;28.87;12.67;;;;;;;19.17;32.65;103081.78;5031295;28;20066;-72
2022/03/23 02:36:59;;;;;;;29.90;13.80;;;;;;;19.23;32.19;103076.41;5030684;28;20025;-72
2022/03/23 02:39:28;;;;;;;32.33;12.27;;;;;;;19.25;32.45;103074.63;5030431;28;20159;-72
2022/03/23 02:41:56;;;;;;;28.47;12.33;;;;;;;19.28;32.83;103074.59;5030416;28;20033;-72
2022/03/23 02:44:21;;;;;;;27.77;12.03;;;;;;;18.83;33.56;103080.28;5031874;28;20033;-72
2022/03/23 02:46:46;;;;;;;29.07;13.20;;;;;;;18.96;33.48;103073.16;5031944;28;20029;-71
2022/03/23 02:49:16;;;;;;;24.90;10.93;;;;;;;18.91;32.88;103069.66;5063545;28;20033;-72
2022/03/23 02:51:42;;;;;;;27.43;11.23;;;;;;;19.00;32.94;103074.88;5031047;28;20401;-71
2022/03/23 03:02:30;;;;;;;21.50;9.53;;;;;;;18.99;33.34;103078.41;5031348;28;20779;-72
2022/03/23 03:04:55;;;;;;;20.50;9.37;;;;;;;18.85;33.34;103080.28;5031644;28;20038;-72
2022/03/23 03:07:21;;;;;;;22.97;9.93;;;;;;;18.75;34.13;103083.03;5030033;28;20401;-72
2022/03/23 03:09:46;;;;;;;21.53;9.67;;;;;;;18.81;33.57;103090.91;5030472;28;20108;-72
2022/03/23 03:12:12;;;;;;;20.37;9.47;;;;;;;18.68;33.70;103086.59;5030190;28;20029;-72
2022/03/23 03:14:38;;;;;;;21.00;10.70;;;;;;;19.12;32.47;103085.34;5029982;28;20018;-71
2022/03/23 03:17:05;;;;;;;22.57;10.83;;;;;;;19.16;32.24;103086.19;5063306;28;20080;-72
2022/03/23 03:19:31;;;;;;;17.67;9.00;;;;;;;18.90;32.77;103089.09;5030151;28;20489;-71
2022/03/23 03:21:56;;;;;;;23.70;10.00;;;;;;;18.94;32.60;103088.19;5029571;28;20060;-72
2022/03/23 03:24:22;;;;;;;23.43;11.20;;;;;;;18.97;32.52;103085.50;5030118;28;20030;-71
2022/03/23 03:26:48;;;;;;;22.77;9.90;;;;;;;18.72;33.61;103085.69;5063578;28;20029;-72
2022/03/23 03:29:14;;;;;;;28.60;10.70;;;;;;;18.63;32.92;103091.06;5029059;28;20021;-72
2022/03/23 03:31:40;;;;;;;32.67;12.57;;;;;;;18.51;33.48;103086.75;5030152;28;20155;-72
2022/03/23 03:34:05;;;;;;;28.00;11.93;;;;;;;18.72;33.07;103093.63;5062670;28;20028;-72
2022/03/23 03:36:31;;;;;;;26.50;12.67;;;;;;;18.76;32.99;103087.41;5062688;28;20086;-72
2022/03/23 03:38:56;;;;;;;28.40;13.27;;;;;;;18.48;33.39;103085.00;5029721;28;20030;-72
2022/03/23 03:41:22;;;;;;;36.43;13.77;;;;;;;18.72;33.18;103092.75;5029700;28;20055;-72
2022/03/23 03:43:48;;;;;;;32.90;14.33;;;;;;;18.51;32.87;103091.16;5062865;28;20035;-73
2022/03/23 03:46:14;;;;;;;38.10;15.50;;;;;;;18.75;32.91;103085.69;5029758;28;20113;-72
2022/03/23 03:48:40;;;;;;;32.73;13.73;;;;;;;18.06;33.47;103089.69;5029919;28;20057;-71
2022/03/23 03:51:07;;;;;;;37.10;15.70;;;;;;;18.05;33.84;103087.03;5028971;28;20029;-72
2022/03/23 03:53:33;;;;;;;33.00;15.87;;;;;;;18.28;33.65;103089.56;5063003;28;20021;-72
2022/03/23 03:55:59;;;;;;;43.27;16.77;;;;;;;18.12;33.58;103089.66;5029256;28;20025;-72
2022/03/23 03:58:25;;;;;;;38.83;16.07;;;;;;;18.14;34.20;103087.84;5029384;28;20667;-72
2022/03/23 04:00:50;;;;;;;34.33;15.00;;;;;;;18.21;33.57;103093.13;5029830;28;20036;-72
2022/03/23 04:03:16;;;;;;;34.67;15.90;;;;;;;18.54;33.48;103096.44;5029133;28;20511;-72
2022/03/23 04:05:41;;;;;;;39.60;16.30;;;;;;;18.16;34.04;103097.56;5029242;28;20022;-72
2022/03/23 04:08:07;;;;;;;45.33;16.57;;;;;;;17.87;34.53;103099.44;5029280;28;20025;-71
2022/03/23 04:10:33;;;;;;;39.50;15.97;;;;;;;18.45;33.17;103092.97;5029143;28;20037;-72
2022/03/23 04:12:58;;;;;;;39.80;16.43;;;;;;;18.47;33.33;103100.91;5030764;28;20025;-72
2022/03/23 04:15:25;;;;;;;40.47;17.10;;;;;;;18.23;33.35;103101.94;5029423;28;20099;-72
2022/03/23 04:17:55;;;;;;;39.60;17.27;;;;;;;18.24;33.60;103109.00;5030212;28;20080;-73
2022/03/23 04:20:22;;;;;;;35.60;15.77;;;;;;;18.34;33.34;103109.81;5029077;28;20052;-71
2022/03/23 04:22:48;;;;;;;40.53;16.70;;;;;;;18.35;33.06;103107.16;5029585;28;20086;-72
2022/03/23 04:25:14;;;;;;;36.70;16.53;;;;;;;17.70;33.65;103101.31;5061514;28;20481;-73
2022/03/23 04:27:51;;;;;;;37.90;16.23;;;;;;;17.61;34.55;103107.47;5029683;28;20029;-73
2022/03/23 04:30:19;;;;;;;43.53;15.27;;;;;;;17.64;34.61;103107.50;5029335;28;20017;-72
2022/03/23 04:32:46;;;;;;;38.57;15.77;;;;;;;17.59;34.14;103107.50;5045193;28;20068;-72
2022/03/23 04:35:12;;;;;;;39.20;16.23;;;;;;;17.56;34.66;103114.56;5030107;28;20144;-72
2022/03/23 04:37:38;;;;;;;39.30;16.87;;;;;;;17.46;34.91;103111.06;5062599;28;20056;-72
2022/03/23 04:40:09;;;;;;;39.10;16.40;;;;;;;17.86;34.51;103107.38;5028707;28;20028;-72
2022/03/23 04:42:36;;;;;;;39.13;15.50;;;;;;;17.61;34.73;103105.75;5029404;28;20018;-72
2022/03/23 04:45:02;;;;;;;33.57;14.83;;;;;;;17.55;35.02;103110.16;5030252;28;20442;-72
2022/03/23 04:47:27;;;;;;;40.20;15.87;;;;;;;17.25;35.22;103109.34;5028627;28;20065;-71
2022/03/23 04:49:52;;;;;;;40.60;16.03;;;;;;;17.94;34.11;103111.81;5029152;28;20076;-72
2022/03/23 04:52:18;;;;;;;41.33;15.17;;;;;;;18.10;34.13;103117.00;5029044;28;20543;-72
2022/03/23 04:54:44;;;;;;;38.03;15.03;;;;;;;18.29;34.10;103117.78;5029145;28;20105;-72
2022/03/23 04:57:10;;;;;;;37.60;15.30;;;;;;;17.76;34.11;103115.38;5061867;28;20083;-71
2022/03/23 04:59:35;;;;;;;40.00;15.73;;;;;;;18.02;33.76;103124.97;5062514;28;20029;-72
2022/03/23 05:02:01;;;;;;;37.47;15.77;;;;;;;17.63;34.41;103116.31;5029630;28;20104;-72
2022/03/23 05:04:26;;;;;;;39.37;16.63;;;;;;;17.84;34.42;103122.41;5028906;28;20083;-72
2022/03/23 05:06:51;;;;;;;38.90;16.13;;;;;;;17.69;34.24;103120.69;5031100;28;20389;-72
2022/03/23 05:09:17;;;;;;;45.33;18.60;;;;;;;17.66;34.60;103124.22;5032250;28;20068;-72
2022/03/23 05:11:42;;;;;;;59.07;19.93;;;;;;;17.80;34.05;103125.06;5032954;28;20037;-71
2022/03/23 05:14:07;;;;;;;53.90;18.40;;;;;;;17.75;33.94;103137.41;5048441;28;20033;-72
2022/03/23 05:16:33;;;;;;;49.20;17.93;;;;;;;17.50;34.54;103130.44;5032844;28;20033;-72
2022/03/23 05:18:59;;;;;;;47.23;17.87;;;;;;;17.47;34.51;103126.03;5033506;28;20022;-72
2022/03/23 05:21:24;;;;;;;35.97;15.93;;;;;;;17.50;34.85;103125.16;5031563;28;20053;-72
2022/03/23 05:23:49;;;;;;;35.70;16.23;;;;;;;17.45;34.70;103123.41;5032469;28;20036;-73
2022/03/23 05:26:15;;;;;;;38.10;14.83;;;;;;;17.39;35.03;103123.44;5033376;28;20048;-72
2022/03/23 05:28:41;;;;;;;39.37;15.87;;;;;;;17.36;35.09;103126.06;5031936;28;20466;-72
2022/03/23 05:31:06;;;;;;;36.03;15.47;;;;;;;17.21;35.26;103126.09;5032154;28;20053;-72
2022/03/23 05:33:32;;;;;;;44.60;15.10;;;;;;;17.13;35.43;103137.56;5033710;28;20491;-71
2022/03/23 05:35:57;;;;;;;34.13;15.27;;;;;;;16.89;35.76;103129.66;5031577;28;20025;-72
2022/03/23 05:38:23;;;;;;;36.10;16.80;;;;;;;17.40;34.55;103130.47;5065585;28;20037;-72
2022/03/23 05:40:48;;;;;;;35.07;15.53;;;;;;;17.01;34.92;103137.56;5032324;28;20485;-72
2022/03/23 05:43:14;;;;;;;35.57;14.80;;;;;;;17.16;34.89;103135.78;5032865;28;20401;-72
2022/03/23 05:45:39;;;;;;;35.53;15.07;;;;;;;16.89;35.70;103140.22;5032134;28;20470;-72
2022/03/23 05:48:05;;;;;;;38.73;15.37;;;;;;;16.86;35.46;103133.13;5033054;28;20076;-72
2022/03/23 05:50:33;;;;;;;34.73;15.10;;;;;;;17.10;35.37;103132.28;5032934;28;20022;-72
2022/03/23 05:52:58;;;;;;;35.97;15.17;;;;;;;16.93;35.23;103129.63;5065268;28;20408;-72
2022/03/23 05:55:24;;;;;;;32.73;14.13;;;;;;;17.09;35.19;103130.53;5065137;28;20212;-72
2022/03/23 05:57:49;;;;;;;32.93;14.70;;;;;;;16.83;35.72;103129.59;5031333;28;20504;-72
2022/03/23 06:00:15;;;;;;;35.47;15.13;;;;;;;17.32;34.60;103134.88;5031372;28;20087;-72
2022/03/23 06:02:41;;;;;;;36.67;14.67;;;;;;;17.09;34.79;103140.19;5031990;28;20025;-72
2022/03/23 06:05:07;;;;;;;32.27;13.63;;;;;;;17.47;34.47;103131.31;5030593;28;20025;-72
2022/03/23 06:07:34;;;;;;;31.00;14.67;;;;;;;17.60;34.01;103141.00;5065008;28;20033;-72
2022/03/23 06:10:00;;;;;;;30.37;13.67;;;;;;;17.56;34.25;103141.03;5064658;28;20384;-72
2022/03/23 06:12:25;;;;;;;33.70;14.37;;;;;;;17.53;34.52;103141.00;5048321;28;20041;-72
2022/03/23 06:14:53;;;;;;;40.13;16.10;;;;;;;17.91;34.49;103142.66;5032782;28;20022;-72
2022/03/23 06:17:19;;;;;;;43.70;14.77;;;;;;;17.52;34.55;103139.25;5029999;28;20594;-72
2022/03/23 06:19:44;;;;;;;37.20;16.07;;;;;;;17.60;34.48;103148.06;5031495;28;20017;-72
2022/03/23 06:22:10;;;;;;;37.57;15.43;;;;;;;17.49;34.66;103145.44;5032506;28;20071;-72
2022/03/23 06:24:35;;;;;;;35.07;15.20;;;;;;;17.45;35.19;103149.84;5064403;28;20516;-72
2022/03/23 06:27:01;;;;;;;33.43;15.30;;;;;;;17.84;34.18;103146.22;5032542;28;20029;-72
2022/03/23 06:29:26;;;;;;;47.57;16.30;;;;;;;17.99;33.79;103143.53;5031327;28;20453;-72
2022/03/23 06:31:51;;;;;;;39.60;16.77;;;;;;;18.02;33.80;103146.16;5030669;28;20091;-71
2022/03/23 06:34:17;;;;;;;43.73;17.83;;;;;;;17.86;34.36;103147.97;5030959;28;20036;-72
2022/03/23 06:36:42;;;;;;;42.40;16.67;;;;;;;18.21;33.98;103146.06;5031391;28;20037;-72
2022/03/23 06:39:08;;;;;;;41.23;15.87;;;;;;;18.16;34.14;103143.44;5031603;28;20057;-72
2022/03/23 06:41:33;;;;;;;45.13;16.67;;;;;;;18.36;33.69;103151.28;5031294;28;20025;-72
2022/03/23 06:43:59;;;;;;;41.40;16.03;;;;;;;18.29;33.95;103150.41;5030847;28;20029;-72
2022/03/23 06:46:25;;;;;;;41.10;15.70;;;;;;;18.67;33.21;103156.38;5030382;28;20550;-72
2022/03/23 06:48:50;;;;;;;40.47;16.43;;;;;;;18.82;32.98;103147.41;5032011;28;20026;-72
2022/03/23 06:51:16;;;;;;;44.63;16.53;;;;;;;18.93;32.71;103148.25;5030560;28;20029;-71
2022/03/23 06:53:42;;;;;;;43.13;17.73;;;;;;;18.41;32.95;103159.16;5030272;28;20064;-72
2022/03/23 06:56:08;;;;;;;36.43;16.17;;;;;;;17.28;35.37;103164.84;5031616;28;20035;-72
2022/03/23 06:58:34;;;;;;;29.87;13.20;;;;;;;16.96;37.06;103169.25;5030644;28;20036;-72
2022/03/23 07:01:00;;;;;;;28.30;12.73;;;;;;;18.01;34.66;103176.16;5030103;28;20026;-72
2022/03/23 07:03:26;;;;;;;31.37;12.97;;;;;;;18.27;34.28;103178.69;5031826;28;20044;-72
2022/03/23 07:05:54;;;;;;;33.70;14.53;;;;;;;18.69;33.39;103175.78;5047362;28;20040;-72
2022/03/23 07:11:05;;;;;;;37.37;14.80;;;;;;;18.79;33.98;103172.19;5058939;28;20095;-72
2022/03/23 07:13:31;;;;;;;37.07;15.37;;;;;;;18.81;33.41;103186.28;5029926;28;20030;-72
2022/03/23 07:15:56;;;;;;;39.03;15.33;;;;;;;18.86;33.28;103172.13;5046470;28;20017;-72
2022/03/23 07:18:22;;;;;;;35.37;16.20;;;;;;;19.13;33.16;103177.22;5030303;28;20048;-72
2022/03/23 07:20:47;;;;;;;37.93;17.17;;;;;;;19.19;32.82;103170.09;5029514;28;20517;-72
2022/03/23 07:23:12;;;;;;;46.50;16.00;;;;;;;19.08;33.00;103173.75;5031078;28;20033;-72
2022/03/23 07:25:38;;;;;;;44.20;16.73;;;;;;;19.62;31.96;103169.69;5030196;28;20025;-71
2022/03/23 07:28:04;;;;;;;36.93;16.77;;;;;;;19.56;31.96;103169.72;5062496;28;20465;-72
2022/03/23 07:30:33;;;;;;;41.97;16.00;;;;;;;19.39;30.98;103178.75;5063432;28;20030;-72
2022/03/23 07:33:00;;;;;;;34.23;15.23;;;;;;;19.79;31.34;103178.31;5030163;28;20044;-72
2022/03/23 07:35:26;;;;;;;36.13;15.37;;;;;;;20.08;29.63;103187.72;5029597;28;20044;-72
2022/03/23 07:37:51;;;;;;;39.33;16.03;;;;;;;20.28;30.34;103186.59;5030169;28;20465;-71
2022/03/23 07:40:17;;;;;;;37.83;15.23;;;;;;;20.46;29.44;103181.00;5029867;28;20030;-72
2022/03/23 07:42:42;;;;;;;34.40;14.73;;;;;;;19.75;30.69;103184.53;5029627;28;20029;-72
2022/03/23 07:45:08;;;;;;;43.33;16.70;;;;;;;19.73;31.03;103189.00;5029278;28;20025;-72
2022/03/23 07:47:34;;;;;;;33.73;15.80;;;;;;;20.36;29.79;103192.69;5063250;28;20167;-72
2022/03/23 07:49:59;;;;;;;34.60;15.57;;;;;;;20.23;30.41;103185.78;5062500;28;20025;-72
2022/03/23 07:52:24;;;;;;;34.07;14.97;;;;;;;20.51;30.15;103194.22;5063008;28;20047;-72
2022/03/23 07:54:51;;;;;;;40.70;16.23;;;;;;;21.25;29.10;103192.19;5030063;28;20021;-72
2022/03/23 07:57:16;;;;;;;40.87;15.57;;;;;;;20.30;29.76;103203.38;5062340;28;20030;-72
2022/03/23 07:59:42;;;;;;;34.83;16.00;;;;;;;23.93;26.20;103194.94;5029845;28;20037;-72
2022/03/23 08:02:07;;;;;;;34.43;15.67;;;;;;;23.89;25.30;103199.47;5045844;28;20033;-72
2022/03/23 08:04:33;;;;;;;33.33;15.17;;;;;;;25.08;23.69;103202.94;5029206;28;20029;-72
2022/03/23 08:07:02;;;;;;;30.07;14.17;;;;;;;27.01;21.50;103203.69;5029530;28;20053;-72
2022/03/23 08:09:27;;;;;;;27.70;14.13;;;;;;;27.12;21.01;103204.13;5030762;28;20819;-72
2022/03/23 08:11:53;;;;;;;41.60;16.08;;;;;;;26.56;21.01;103209.06;5028825;28;20036;-71
2022/03/23 08:14:18;;;;;;;34.05;16.08;;;;;;;25.98;21.06;103205.97;5029551;28;20161;-72
2022/03/23 08:16:44;;;;;;;29.27;15.60;;;;;;;27.10;20.64;103203.28;5029365;28;20112;-73
2022/03/23 08:19:09;;;;;;;35.80;14.52;;;;;;;28.35;19.83;103204.84;5030375;28;20025;-72
2022/03/23 08:21:34;;;;;;;39.88;16.13;;;;;;;28.31;18.94;103208.63;5030817;28;20493;-72
2022/03/23 08:24:00;;;;;;;30.88;16.05;;;;;;;28.86;18.32;103205.06;5028793;28;20021;-72
2022/03/23 08:26:26;;;;;;;32.35;15.70;;;;;;;29.17;18.52;103198.97;5062498;28;20029;-72
2022/03/23 08:28:52;;;;;;;30.83;15.30;;;;;;;28.99;18.72;103205.28;5030824;28;20034;-72
2022/03/23 08:31:17;;;;;;;30.02;14.82;;;;;;;30.28;17.20;103205.56;5029849;28;20025;-72
2022/03/23 08:33:43;;;;;;;30.20;15.23;;;;;;;29.97;18.12;103198.38;5029401;28;20033;-72
2022/03/23 08:36:09;;;;;;;30.38;16.00;;;;;;;29.30;17.84;103199.22;5029078;28;20037;-72
2022/03/23 08:38:35;;;;;;;29.40;16.33;;;;;;;28.93;18.44;103195.72;5029107;28;20430;-72
2022/03/23 08:41:02;;;;;;;28.10;14.70;;;;;;;29.83;17.31;103199.97;5014283;28;20061;-72
2022/03/23 08:43:27;;;;;;;28.33;15.63;;;;;;;29.61;17.64;103192.19;5033179;28;20049;-72
2022/03/23 08:45:52;;;;;;;33.47;16.42;;;;;;;30.34;16.63;103201.69;5032365;28;20053;-71
2022/03/23 08:48:18;;;;;;;32.92;15.40;;;;;;;30.11;17.41;103202.00;5034127;28;20392;-72
2022/03/23 08:50:45;;;;;;;31.30;17.10;;;;;;;29.11;18.19;103199.28;5066652;28;20032;-72
2022/03/23 08:53:10;;;;;;;27.33;15.13;;;;;;;28.67;18.48;103203.28;5033336;28;20440;-72
2022/03/23 08:55:36;;;;;;;28.60;15.23;;;;;;;30.66;17.32;103198.97;5034329;28;20026;-72
2022/03/23 08:58:01;;;;;;;30.10;15.27;;;;;;;31.29;15.98;103200.59;5032949;28;20384;-72
2022/03/23 09:00:27;;;;;;;31.27;15.63;;;;;;;29.66;17.65;103202.72;5032159;28;20037;-72
2022/03/23 09:02:52;;;;;;;32.63;15.65;;;;;;;31.78;15.41;103197.53;5032773;28;20037;-71
2022/03/23 09:05:19;;;;;;;30.33;16.75;;;;;;;30.13;16.92;103207.34;5032775;28;20037;-72
2022/03/23 09:07:45;;;;;;;31.25;16.13;;;;;;;31.10;16.19;103200.84;5032457;28;20112;-72
2022/03/23 09:10:13;;;;;;;24.73;15.40;;;;;;;31.42;15.75;103195.28;5065811;28;20025;-72
2022/03/23 09:12:40;;;;;;;26.25;14.27;;;;;;;30.39;17.16;103210.34;5032704;28;20436;-72
2022/03/23 09:15:07;;;;;;;30.73;16.15;;;;;;;30.18;17.50;103212.47;5064857;28;20021;-72
2022/03/23 09:17:33;;;;;;;25.60;16.05;;;;;;;30.77;16.62;103218.94;5065908;28;20520;-72
2022/03/23 09:20:00;;;;;;;32.50;16.88;;;;;;;30.43;17.30;103211.91;5031637;28;20018;-72
2022/03/23 09:22:27;;;;;;;26.88;15.00;;;;;;;30.77;16.90;103215.38;5033665;28;20025;-72
2022/03/23 09:24:53;;;;;;;25.88;15.48;;;;;;;32.20;15.41;103208.41;5065660;28;20523;-72
2022/03/23 09:27:18;;;;;;;28.88;15.57;;;;;;;31.53;16.42;103209.03;5064914;28;20147;-72
2022/03/23 09:29:44;;;;;;;31.13;16.10;;;;;;;30.35;17.19;103219.56;5032538;28;20030;-72
2022/03/23 09:32:12;;;;;;;32.25;16.20;;;;;;;30.62;17.34;103207.25;5031747;28;20022;-72
2022/03/23 09:34:38;;;;;;;27.85;15.50;;;;;;;31.13;16.74;103211.47;5032012;28;20465;-72
2022/03/23 09:39:49;;;;;;;30.75;16.80;;;;;;;32.08;15.60;103214.56;5032793;28;20068;-72
2022/03/23 09:42:18;;;;;;;26.23;14.98;;;;;;;31.68;15.49;103214.44;5032392;28;20049;-72
2022/03/23 09:44:48;;;;;;;29.75;16.65;;;;;;;31.70;16.04;103209.81;5033483;28;20026;-72
2022/03/23 09:47:13;;;;;;;30.10;16.85;;;;;;;32.13;15.81;103217.84;5032871;28;20030;-72
2022/03/23 09:49:39;;;;;;;26.65;15.45;;;;;;;32.33;15.30;103216.59;5031468;28;20033;-72
2022/03/23 09:52:05;;;;;;;27.75;16.38;;;;;;;32.70;15.32;103215.97;5032933;28;20025;-72
2022/03/23 09:54:31;;;;;;;37.90;16.85;;;;;;;31.75;15.95;103218.47;5031921;28;20397;-72
2022/03/23 09:56:56;;;;;;;33.53;17.08;;;;;;;30.89;17.36;103222.75;5031110;28;20026;-72
2022/03/23 09:59:22;;;;;;;35.85;16.80;;;;;;;31.03;17.42;103231.91;5033016;28;20037;-72
2022/03/23 10:01:47;;;;;;;28.48;16.20;;;;;;;31.03;16.55;103226.50;5032139;28;20028;-72
2022/03/23 10:04:12;;;;;;;30.85;16.23;;;;;;;32.97;15.11;103214.13;5032261;28;20041;-72
2022/03/23 10:07:09;;;;;;;34.25;17.27;;;;;;;32.49;15.45;103208.31;5065437;28;20029;-72
2022/03/23 10:09:40;;;;;;;32.05;17.67;;;;;;;32.25;15.58;103217.09;5032530;28;20082;-72
2022/03/23 10:12:27;;;;;;;30.20;18.15;;;;;;;32.29;16.33;103224.03;5064546;28;20029;-72
2022/03/23 10:15:30;;;;;;;34.38;16.60;;;;;;;30.98;16.37;103233.97;5032597;28;20029;-72
2022/03/23 10:18:32;;;;;;;34.08;17.48;;;;;;;32.20;15.78;103221.91;5032409;28;20112;-72
2022/03/23 10:20:57;;;;;;;31.20;16.77;;;;;;;31.93;15.47;103222.72;5064690;28;20339;-71
2022/03/23 10:23:23;;;;;;;30.00;16.92;;;;;;;32.48;15.17;103222.81;5030717;28;20128;-72
2022/03/23 10:25:49;;;;;;;33.08;17.13;;;;;;;31.97;15.72;103213.44;5031443;28;20030;-72
2022/03/23 10:28:17;;;;;;;34.45;17.67;;;;;;;32.09;16.07;103211.78;5030977;28;20534;-72
2022/03/23 10:30:44;;;;;;;29.48;17.13;;;;;;;33.10;15.54;103221.38;5030956;28;20035;-72
2022/03/23 10:33:25;;;;;;;31.75;17.80;;;;;;;32.28;15.33;103211.47;5064374;28;20051;-72
2022/03/23 10:35:59;;;;;;;31.45;17.92;;;;;;;31.86;16.20;103207.88;5032609;28;20029;-72
2022/03/23 10:38:25;;;;;;;34.42;18.30;;;;;;;31.48;16.40;103216.53;5014054;28;20032;-72
2022/03/23 10:40:52;;;;;;;28.92;17.55;;;;;;;31.73;16.66;103209.63;5031435;28;20029;-72
2022/03/23 10:43:33;;;;;;;31.90;18.02;;;;;;;32.23;16.34;103208.22;5064142;28;20493;-72
2022/03/23 10:46:07;;;;;;;32.00;17.55;;;;;;;32.70;15.63;103208.75;5063444;28;20079;-71
2022/03/23 10:48:32;;;;;;;29.05;17.40;;;;;;;33.40;15.01;103199.44;5032454;28;20045;-72
2022/03/23 10:50:58;;;;;;;36.38;17.80;;;;;;;31.38;16.53;103196.44;5032098;28;20493;-71
2022/03/23 10:53:37;;;;;;;30.73;18.10;;;;;;;31.68;16.25;103209.03;5030450;28;20099;-72
2022/03/23 10:56:06;;;;;;;35.97;18.05;;;;;;;32.27;15.45;103196.22;5030426;28;20057;-72
2022/03/23 10:58:34;;;;;;;33.78;18.23;;;;;;;30.63;17.03;103214.34;5031965;28;20100;-71
2022/03/23 11:01:06;;;;;;;31.05;17.67;;;;;;;32.53;15.39;103199.00;5030564;28;20565;-72
2022/03/23 11:03:48;;;;;;;33.22;18.08;;;;;;;32.08;15.61;103203.75;5031571;28;20028;-72
2022/03/23 11:06:23;;;;;;;32.38;17.80;;;;;;;33.18;14.55;103200.06;5030889;28;20091;-72
2022/03/23 11:08:49;;;;;;;36.17;18.80;;;;;;;33.12;15.20;103195.03;5032081;28;20503;-72
2022/03/23 11:16:46;;;;;;;31.33;18.60;;;;;;;29.11;17.68;103212.72;5031927;28;20152;-71
2022/03/23 11:19:14;;;;;;;33.00;19.25;;;;;;;31.26;16.47;103207.06;5030146;28;20036;-71
2022/03/23 11:21:59;;;;;;;30.38;18.70;;;;;;;32.54;15.51;103200.75;5062678;28;20045;-72
2022/03/23 11:24:38;;;;;;;35.03;19.60;;;;;;;29.08;17.88;103210.22;5031341;28;20358;-72
2022/03/23 11:27:09;;;;;;;34.00;18.70;;;;;;;31.21;15.43;103203.75;5029734;28;20075;-72